Time;durP1;ratioP1;P1;durP2;ratioP2;P2;SDS_P1;SDS_P2;PMS_P1;PMS_P2;Temp;Humidity;BMP_temperature;BMP_pressure;BME280_temperature;BME280_humidity;BME280_pressure;Samples;Min_cycle;Max_cycle;Signal;HPM_P1;HPM_P2
2020/12/22 12:03:12;;;;;;;0.80;0.80;;;;;;;12.54;95.90;98896.59;5202703;27;20526;-82
2020/12/22 12:05:41;;;;;;;0.60;0.60;;;;;;;12.97;95.00;98916.66;5149082;27;39057;-84
2020/12/22 12:08:08;;;;;;;0.77;0.67;;;;;;;13.30;91.51;98903.63;5194100;22;43421;-82
2020/12/22 12:10:35;;;;;;;0.90;0.90;;;;;;;13.56;89.95;98897.22;5183776;22;43039;-87
2020/12/22 12:13:02;;;;;;;1.60;1.20;;;;;;;13.73;87.74;98895.97;5064414;28;41083;-87
2020/12/22 12:15:29;;;;;;;1.47;1.00;;;;;;;13.91;87.31;98901.72;5047831;28;40348;-86
2020/12/22 12:17:56;;;;;;;0.60;0.60;;;;;;;14.06;85.79;98918.38;5048224;28;42924;-86
2020/12/22 12:20:25;;;;;;;1.23;0.67;;;;;;;14.12;85.83;98907.22;5142269;22;43815;-87
2020/12/22 12:22:52;;;;;;;0.70;0.63;;;;;;;14.22;85.09;98921.53;5080198;28;42712;-87
2020/12/22 12:25:19;;;;;;;1.90;1.00;;;;;;;14.23;84.61;98915.25;5046580;28;40292;-86
2020/12/22 12:27:47;;;;;;;0.70;0.70;;;;;;;14.24;84.25;98925.78;5046840;28;44027;-87
2020/12/22 12:30:14;;;;;;;0.67;0.67;;;;;;;14.04;83.92;98891.84;5047106;28;44498;-86
2020/12/22 12:32:42;;;;;;;0.70;0.70;;;;;;;14.26;83.58;98918.53;5152507;22;43628;-87
2020/12/22 12:35:09;;;;;;;0.70;0.70;;;;;;;14.38;83.08;98927.41;5048592;28;40793;-86
2020/12/22 12:37:37;;;;;;;0.80;0.80;;;;;;;14.32;82.80;98917.22;5064426;28;42065;-87
2020/12/22 12:40:05;;;;;;;0.60;0.60;;;;;;;14.40;82.58;98919.31;5064616;28;44772;-87
2020/12/22 12:42:32;;;;;;;0.60;0.60;;;;;;;14.40;81.91;98917.50;5152973;22;42078;-86
2020/12/22 12:44:59;;;;;;;0.73;0.73;;;;;;;14.47;82.07;98932.03;5067515;28;42239;-86
2020/12/22 12:47:27;;;;;;;0.67;0.67;;;;;;;14.40;81.91;98914.84;5067422;28;42449;-87
2020/12/22 12:49:54;;;;;;;1.87;0.70;;;;;;;14.33;82.03;98905.63;5066921;28;43475;-85
2020/12/22 12:52:21;;;;;;;0.50;0.50;;;;;;;14.45;82.12;98919.84;5066002;28;42784;-86
2020/12/22 12:54:49;;;;;;;1.70;0.70;;;;;;;14.51;81.34;98908.69;5139585;22;41140;-85
2020/12/22 12:57:16;;;;;;;1.00;0.63;;;;;;;14.54;81.33;98914.63;5059864;28;42543;-86
2020/12/22 12:59:46;;;;;;;1.77;0.67;;;;;;;14.47;80.95;98900.06;5027441;28;42122;-86
2020/12/22 13:02:13;;;;;;;1.10;1.00;;;;;;;14.59;81.12;98915.09;5043901;28;43592;-85
2020/12/22 13:04:40;;;;;;;0.90;0.90;;;;;;;14.48;80.68;98885.78;5043181;28;40795;-87
2020/12/22 13:07:07;;;;;;;0.50;0.50;;;;;;;14.51;80.38;98904.19;5145156;22;42369;-87
2020/12/22 13:09:35;;;;;;;0.87;0.87;;;;;;;14.57;80.69;98910.88;5104253;28;43893;-87
2020/12/22 13:12:03;;;;;;;0.80;0.80;;;;;;;14.50;80.21;98913.16;5087126;28;43669;-87
2020/12/22 13:14:30;;;;;;;0.90;0.90;;;;;;;14.44;80.45;98908.31;5090364;28;41124;-88
2020/12/22 13:17:25;;;;;;;0.80;0.80;;;;;;;14.56;80.63;98931.34;5087338;23;43283;31
2020/12/22 13:19:53;;;;;;;0.70;0.70;;;;;;;14.43;80.38;98903.09;4995907;28;42820;-88
2020/12/22 13:22:20;;;;;;;0.70;0.70;;;;;;;14.38;80.74;98898.09;5006747;28;42888;-88
2020/12/22 13:24:47;;;;;;;0.70;0.70;;;;;;;14.47;80.48;98921.38;4998816;28;40418;-86
2020/12/22 13:27:15;;;;;;;1.13;1.00;;;;;;;14.26;80.30;98891.03;5000059;28;42236;-86
2020/12/22 13:29:42;;;;;;;1.77;1.20;;;;;;;14.44;80.57;98908.31;5146283;22;44321;-87
2020/12/22 13:32:10;;;;;;;0.90;0.90;;;;;;;14.55;80.36;98915.47;5055373;28;42576;-89
2020/12/22 13:34:38;;;;;;;1.30;1.07;;;;;;;14.55;79.99;98907.50;5055623;28;41353;-86
2020/12/22 13:37:05;;;;;;;1.47;0.90;;;;;;;14.54;79.52;98911.97;5056741;28;43232;-85
2020/12/22 13:39:32;;;;;;;0.90;0.90;;;;;;;14.56;79.71;98904.72;5057894;28;43993;-85
2020/12/22 13:41:59;;;;;;;1.17;1.07;;;;;;;14.58;79.27;98913.44;5124626;22;42395;-85
2020/12/22 13:44:27;;;;;;;0.70;0.70;;;;;;;14.63;78.99;98921.91;5048013;28;41039;-86
2020/12/22 13:46:55;;;;;;;0.70;0.70;;;;;;;14.56;79.13;98912.69;5049573;28;42312;-86
2020/12/22 13:49:22;;;;;;;0.67;0.67;;;;;;;14.62;79.13;98925.53;5048370;28;41822;-86
2020/12/22 13:54:31;;;;;;;0.77;0.77;;;;;;;14.63;79.22;98929.91;5047440;28;20243;-86
2020/12/22 13:56:58;;;;;;;0.80;0.80;;;;;;;14.66;79.07;98937.66;5022164;28;43028;-86
2020/12/22 13:59:25;;;;;;;1.83;1.10;;;;;;;14.65;78.81;98929.78;5036205;28;43133;-85
2020/12/22 14:01:54;;;;;;;1.00;0.90;;;;;;;14.63;78.87;98937.91;5017609;28;42482;-86
2020/12/22 14:04:21;;;;;;;0.80;0.80;;;;;;;14.63;79.28;98942.38;5125355;22;40539;-88
2020/12/22 14:06:48;;;;;;;0.80;0.80;;;;;;;14.54;79.06;98922.63;5082357;28;43135;-85
2020/12/22 14:09:16;;;;;;;1.53;0.80;;;;;;;14.61;79.04;98955.81;5077825;28;43698;-85
2020/12/22 14:11:44;;;;;;;1.23;1.00;;;;;;;14.62;79.15;98951.34;5080755;28;43564;-86
2020/12/22 14:14:11;;;;;;;1.03;1.03;;;;;;;14.59;79.44;98947.09;5072839;28;40439;-86
2020/12/22 14:16:40;;;;;;;2.20;1.53;;;;;;;14.60;79.20;98954.13;5156191;22;42418;-85
2020/12/22 14:19:09;;;;;;;2.00;1.67;;;;;;;14.56;79.46;98958.00;5064944;28;42017;-86
2020/12/22 14:21:36;;;;;;;1.93;1.40;;;;;;;14.36;79.54;98929.34;5047529;28;43837;-86
2020/12/22 14:24:03;;;;;;;1.80;1.00;;;;;;;14.49;79.64;98955.91;5051835;28;41508;-87
2020/12/22 14:26:31;;;;;;;1.97;0.90;;;;;;;14.40;79.92;98954.81;5052404;28;43218;-87
2020/12/22 14:28:58;;;;;;;1.93;1.10;;;;;;;14.34;80.01;98958.75;5174735;22;44397;-87
2020/12/22 14:31:33;;;;;;;2.70;1.07;;;;;;;14.41;80.02;98955.66;5093054;28;42620;-86
2020/12/22 14:34:00;;;;;;;0.90;0.90;;;;;;;14.36;79.98;98955.97;5087672;28;40185;-86
2020/12/22 14:36:28;;;;;;;1.77;1.00;;;;;;;14.41;79.94;98959.19;5084737;28;42181;-87
2020/12/22 14:38:55;;;;;;;1.43;0.90;;;;;;;14.42;80.24;98966.22;5159848;22;43719;-87
2020/12/22 14:42:21;;;;;;;1.03;0.83;;;;;;;14.41;80.44;98964.50;5055603;28;43342;-86
